Time;durP1;ratioP1;P1;durP2;ratioP2;P2;SDS_P1;SDS_P2;PMS_P1;PMS_P2;Temp;Humidity;BMP_temperature;BMP_pressure;BME280_temperature;BME280_humidity;BME280_pressure;Samples;Min_cycle;Max_cycle;Signal;HPM_P1;HPM_P2
2023/09/22 00:00:41;;;;;;;8.23;2.88;;;;;;;19.64;70.04;99636.31;2049010;28;20110;-66
2023/09/22 00:01:46;;;;;;;6.13;2.70;;;;;;;19.63;70.05;99638.22;2057933;28;20858;-67
2023/09/22 00:02:48;;;;;;;4.95;2.63;;;;;;;19.63;70.05;99643.69;2047663;28;20308;-67
2023/09/22 00:03:51;;;;;;;4.32;2.22;;;;;;;19.62;70.06;99641.34;2049150;28;20051;-67
2023/09/22 00:04:57;;;;;;;6.38;2.55;;;;;;;19.61;70.08;99642.50;2057201;28;20039;-67
2023/09/22 00:06:06;;;;;;;12.80;3.22;;;;;;;19.60;70.14;99659.97;2049965;28;20158;-67
2023/09/22 00:07:07;;;;;;;9.52;2.53;;;;;;;19.58;70.41;99644.00;2057149;28;20866;-67
2023/09/22 00:08:09;;;;;;;8.27;3.20;;;;;;;19.52;70.15;99637.25;2056942;28;20145;-67
2023/09/22 00:09:14;;;;;;;5.53;2.72;;;;;;;19.56;70.46;99649.00;2049288;28;20035;-67
2023/09/22 00:10:19;;;;;;;13.43;2.75;;;;;;;19.55;70.39;99650.19;2057578;28;20047;-67
2023/09/22 00:11:23;;;;;;;6.50;2.65;;;;;;;19.55;70.46;99639.28;2057159;28;20046;-67
2023/09/22 00:12:26;;;;;;;6.03;2.55;;;;;;;19.54;70.37;99651.31;2049935;28;20131;-67
2023/09/22 00:13:32;;;;;;;16.45;2.72;;;;;;;19.53;70.56;99641.56;2058128;28;20042;-67
2023/09/22 00:14:40;;;;;;;9.90;2.40;;;;;;;19.52;70.38;99633.75;2045102;28;20039;-68
2023/09/22 00:15:44;;;;;;;6.45;2.78;;;;;;;19.51;70.52;99640.34;2034687;29;20040;-66
2023/09/22 00:16:48;;;;;;;7.57;2.53;;;;;;;19.51;70.89;99649.28;2041155;28;20048;-66
2023/09/22 00:17:50;;;;;;;8.68;2.90;;;;;;;19.49;70.67;99634.47;2049133;28;20712;-66
2023/09/22 00:18:52;;;;;;;4.20;2.40;;;;;;;19.49;70.44;99639.94;2048963;28;20143;-66
2023/09/22 00:19:56;;;;;;;6.90;2.60;;;;;;;19.47;70.82;99645.72;2057934;28;20043;-66
2023/09/22 00:20:59;;;;;;;6.65;2.80;;;;;;;19.47;70.78;99629.38;2049206;28;20040;-66
2023/09/22 00:22:09;;;;;;;6.25;2.60;;;;;;;19.45;70.81;99631.66;2050747;28;20859;-66
2023/09/22 00:23:14;;;;;;;5.68;2.47;;;;;;;19.45;70.87;99628.94;2056652;28;20042;-66
2023/09/22 00:24:20;;;;;;;9.48;2.65;;;;;;;19.43;70.73;99629.31;2050073;28;20831;-66
2023/09/22 00:25:24;;;;;;;8.27;2.72;;;;;;;19.43;70.96;99628.53;2049892;28;20036;-66
2023/09/22 00:26:30;;;;;;;11.75;2.88;;;;;;;19.43;71.07;99625.78;2049775;28;20748;-66
2023/09/22 00:27:32;;;;;;;7.18;2.70;;;;;;;19.41;71.07;99628.88;2058059;28;20118;-67
2023/09/22 00:28:36;;;;;;;8.07;2.63;;;;;;;19.42;70.97;99624.22;2049249;28;20048;-66
2023/09/22 00:29:38;;;;;;;8.60;2.40;;;;;;;19.41;71.02;99639.78;2041356;28;20046;-67
2023/09/22 00:30:42;;;;;;;6.28;2.63;;;;;;;19.42;71.04;99618.78;2057169;28;20039;-67
2023/09/22 00:31:44;;;;;;;9.00;2.75;;;;;;;19.41;71.08;99617.19;2056867;28;20798;-67
2023/09/22 00:32:52;;;;;;;5.20;2.67;;;;;;;19.42;71.08;99619.56;2056933;28;20051;-67
2023/09/22 00:33:55;;;;;;;8.90;2.95;;;;;;;19.42;71.08;99624.22;2056540;28;20886;-67
2023/09/22 00:35:06;;;;;;;10.60;3.00;;;;;;;19.39;71.05;99622.22;2057040;28;20039;-67
2023/09/22 00:36:11;;;;;;;7.30;2.90;;;;;;;19.37;71.03;99619.84;2058191;28;20759;-67
2023/09/22 00:37:16;;;;;;;6.28;2.42;;;;;;;19.36;71.09;99621.00;2056923;28;20158;-67
2023/09/22 00:38:18;;;;;;;7.97;2.60;;;;;;;19.38;71.25;99623.34;2049445;28;20759;-65
2023/09/22 00:39:22;;;;;;;3.75;2.33;;;;;;;19.37;71.26;99613.59;2059011;28;20039;-65
2023/09/22 00:40:29;;;;;;;5.78;3.22;;;;;;;19.37;71.19;99621.78;2057453;28;20040;-65
2023/09/22 00:41:35;;;;;;;8.23;2.58;;;;;;;19.35;71.25;99613.94;2043426;28;20032;-68
2023/09/22 00:42:37;;;;;;;8.13;3.08;;;;;;;19.33;71.39;99621.72;2051504;28;20372;-65
2023/09/22 00:43:42;;;;;;;7.82;2.65;;;;;;;19.32;71.36;99617.41;2066296;28;20069;-65
2023/09/22 00:44:46;;;;;;;6.47;2.38;;;;;;;19.32;71.40;99619.34;2057809;28;20965;-65
2023/09/22 00:45:52;;;;;;;5.50;2.55;;;;;;;19.33;71.43;99627.16;2059553;28;20062;-65
2023/09/22 00:47:06;;;;;;;8.65;2.70;;;;;;;19.33;71.53;99631.84;2050535;28;20044;-65
2023/09/22 00:48:16;;;;;;;4.25;2.67;;;;;;;19.31;71.59;99615.81;2051166;28;20059;-65
2023/09/22 00:49:21;;;;;;;8.05;2.83;;;;;;;19.30;71.53;99610.75;2042525;29;20040;-65
2023/09/22 00:50:26;;;;;;;5.45;2.58;;;;;;;19.29;71.59;99606.44;2053123;28;20038;-65
2023/09/22 00:51:31;;;;;;;8.43;2.58;;;;;;;19.28;71.71;99615.75;2057488;28;20086;-66
2023/09/22 00:52:33;;;;;;;6.90;2.50;;;;;;;19.27;71.72;99600.56;2050517;28;20055;-65
2023/09/22 00:53:39;;;;;;;8.38;2.60;;;;;;;19.24;71.76;99602.06;2035163;29;20190;-65
2023/09/22 00:54:48;;;;;;;11.05;2.78;;;;;;;19.21;71.97;99598.13;2045584;28;20166;-65
2023/09/22 00:55:53;;;;;;;9.13;2.78;;;;;;;19.20;72.06;99595.78;2056757;28;20963;-66
2023/09/22 00:56:57;;;;;;;5.75;2.72;;;;;;;19.19;71.94;99594.19;2042813;28;20886;-65
2023/09/22 00:58:00;;;;;;;4.95;2.47;;;;;;;19.20;72.01;99593.06;2051751;28;20036;-65
2023/09/22 00:59:05;;;;;;;10.57;2.65;;;;;;;19.19;71.91;99592.22;2057521;28;20054;-65
2023/09/22 01:00:11;;;;;;;7.25;2.80;;;;;;;19.17;71.91;99597.28;2051400;28;20748;-65
2023/09/22 01:01:16;;;;;;;8.57;2.83;;;;;;;19.18;72.01;99592.59;2043219;28;20032;-65
2023/09/22 01:02:18;;;;;;;5.45;2.83;;;;;;;19.18;72.14;99585.22;2042886;28;20043;-65
2023/09/22 01:03:23;;;;;;;11.38;3.40;;;;;;;19.14;72.18;99580.88;2047730;28;20122;-65
2023/09/22 01:04:28;;;;;;;7.75;2.60;;;;;;;19.15;72.24;99599.56;2058961;28;20038;-65
2023/09/22 01:05:41;;;;;;;6.40;2.72;;;;;;;19.13;72.36;99593.66;2057364;28;20042;-65
2023/09/22 01:06:44;;;;;;;10.90;4.45;;;;;;;19.13;72.35;99585.50;2044119;28;20104;-65
2023/09/22 01:07:53;;;;;;;8.20;2.50;;;;;;;19.11;72.56;99582.38;2035181;29;20044;-65
2023/09/22 01:08:56;;;;;;;8.05;2.60;;;;;;;19.10;72.45;99591.66;2042894;28;20040;-65
2023/09/22 01:10:14;;;;;;;7.78;3.08;;;;;;;19.06;72.55;99584.59;2043833;28;20032;-65
2023/09/22 01:11:17;;;;;;;7.13;2.30;;;;;;;19.08;72.68;99580.34;2044136;28;20148;-65
2023/09/22 01:12:20;;;;;;;11.30;2.78;;;;;;;19.08;72.59;99580.34;2050900;28;20115;-65
2023/09/22 01:13:22;;;;;;;5.78;2.72;;;;;;;19.08;72.32;99577.63;2058426;28;20035;-65
2023/09/22 01:14:27;;;;;;;4.18;2.30;;;;;;;19.07;72.56;99581.47;2049811;28;21306;-65
2023/09/22 01:15:28;;;;;;;3.95;2.75;;;;;;;19.05;72.67;99588.47;2034892;29;20040;-65
2023/09/22 01:16:37;;;;;;;4.88;2.53;;;;;;;19.03;73.03;99585.28;2035472;28;20047;-65
2023/09/22 01:17:39;;;;;;;6.07;2.28;;;;;;;19.02;72.73;99579.06;2034834;29;20136;-65
2023/09/22 01:18:46;;;;;;;6.32;2.47;;;;;;;19.02;72.84;99587.25;2042167;28;20044;-65
2023/09/22 01:19:51;;;;;;;8.57;2.33;;;;;;;19.01;72.91;99579.41;2050884;28;20117;-65
2023/09/22 01:20:59;;;;;;;4.38;2.65;;;;;;;19.00;72.94;99581.34;2050507;28;20115;-65
2023/09/22 01:22:00;;;;;;;7.80;2.80;;;;;;;18.99;73.05;99586.00;2042745;28;20159;-65
2023/09/22 01:23:06;;;;;;;9.73;2.95;;;;;;;18.99;72.88;99579.78;2049245;28;20839;-65
2023/09/22 01:24:09;;;;;;;11.38;3.00;;;;;;;19.00;72.90;99581.34;2042854;28;20051;-65
2023/09/22 01:25:14;;;;;;;6.60;2.85;;;;;;;18.99;73.08;99579.78;2042945;28;20044;-64
2023/09/22 01:26:16;;;;;;;5.95;2.88;;;;;;;18.98;72.90;99589.09;2050878;28;20768;-65
2023/09/22 01:27:21;;;;;;;12.90;3.40;;;;;;;18.97;73.07;99580.13;2059080;28;20027;-65
2023/09/22 01:28:23;;;;;;;6.30;2.70;;;;;;;18.97;72.92;99571.16;2058499;28;20043;-65
2023/09/22 01:29:29;;;;;;;11.60;3.10;;;;;;;18.96;72.90;99573.09;2058548;28;20158;-65
2023/09/22 01:30:33;;;;;;;6.13;2.83;;;;;;;18.97;73.00;99576.63;2048953;28;20070;-65
2023/09/22 01:31:42;;;;;;;7.68;3.10;;;;;;;18.95;73.02;99574.25;2035773;28;20096;-65
2023/09/22 01:32:51;;;;;;;6.80;3.00;;;;;;;18.95;73.02;99576.22;2052185;28;20062;-65
2023/09/22 01:33:55;;;;;;;6.40;2.80;;;;;;;18.96;73.03;99580.50;2052959;28;21086;-65
2023/09/22 01:35:11;;;;;;;6.97;2.80;;;;;;;18.91;73.10;99578.84;2051000;28;20041;-67
2023/09/22 01:36:18;;;;;;;11.23;3.72;;;;;;;18.91;73.26;99572.59;2050275;28;20114;-66
2023/09/22 01:37:30;;;;;;;9.40;2.80;;;;;;;18.88;73.24;99581.50;2051245;28;20035;-66
2023/09/22 01:38:32;;;;;;;6.80;3.53;;;;;;;18.89;73.32;99580.38;2056395;28;20815;-66
2023/09/22 01:39:38;;;;;;;15.82;2.88;;;;;;;18.88;73.35;99573.31;2050234;28;21057;-66
2023/09/22 01:40:44;;;;;;;7.03;2.90;;;;;;;18.86;73.42;99581.06;2050531;28;20039;-67
2023/09/22 01:41:46;;;;;;;5.57;2.80;;;;;;;18.85;73.55;99574.03;2050520;28;20028;-67
2023/09/22 01:42:50;;;;;;;13.77;2.83;;;;;;;18.84;73.53;99578.69;2042465;28;20040;-67
2023/09/22 01:44:03;;;;;;;8.13;2.50;;;;;;;18.82;73.59;99574.75;2036256;29;20124;-67
2023/09/22 01:45:14;;;;;;;6.50;2.53;;;;;;;18.83;73.56;99579.06;2044909;28;20042;-67
2023/09/22 01:46:16;;;;;;;4.60;2.55;;;;;;;18.83;73.68;99579.06;2042323;29;20115;-67
2023/09/22 01:47:21;;;;;;;7.18;2.88;;;;;;;18.80;73.67;99575.13;2035193;28;21019;-66
2023/09/22 01:48:24;;;;;;;7.80;3.13;;;;;;;18.79;73.63;99570.00;2034949;29;20036;-67
2023/09/22 01:49:28;;;;;;;9.00;3.03;;;;;;;18.79;73.77;99568.09;2033742;29;20167;-66
2023/09/22 01:50:34;;;;;;;11.60;3.28;;;;;;;18.78;73.96;99568.44;2050410;28;20035;-66
2023/09/22 01:51:38;;;;;;;6.90;2.80;;;;;;;18.77;73.83;99575.06;2055876;28;20035;-66
2023/09/22 01:52:42;;;;;;;10.90;2.60;;;;;;;18.77;73.94;99566.88;2045364;28;20035;-66
2023/09/22 01:53:44;;;;;;;3.90;2.80;;;;;;;18.76;73.96;99571.53;2057060;28;20051;-67
2023/09/22 01:54:48;;;;;;;7.97;2.88;;;;;;;18.74;73.97;99563.72;2058898;28;20169;-66
2023/09/22 01:55:52;;;;;;;9.25;3.03;;;;;;;18.73;73.90;99570.31;2057201;28;20039;-67
2023/09/22 01:56:59;;;;;;;11.70;2.90;;;;;;;18.72;73.99;99562.47;2058085;28;20042;-67
2023/09/22 01:58:07;;;;;;;4.38;2.58;;;;;;;18.70;74.08;99556.59;2057164;28;20937;-67
2023/09/22 01:59:11;;;;;;;4.63;2.55;;;;;;;18.69;74.17;99561.22;2050742;28;20107;-67
2023/09/22 02:00:18;;;;;;;14.57;2.92;;;;;;;18.68;74.04;99558.88;2058835;28;20039;-67
2023/09/22 02:01:21;;;;;;;7.30;3.03;;;;;;;18.69;74.20;99555.00;2058022;28;20054;-67
2023/09/22 02:02:25;;;;;;;7.25;2.88;;;;;;;18.69;74.35;99563.16;2049911;28;20040;-67
2023/09/22 02:03:27;;;;;;;4.10;2.50;;;;;;;18.68;74.29;99556.94;2057972;28;20823;-67
2023/09/22 02:04:33;;;;;;;10.23;2.92;;;;;;;18.67;74.32;99555.38;2041332;28;20048;-67
2023/09/22 02:05:40;;;;;;;16.02;3.00;;;;;;;18.65;74.43;99567.75;2035808;28;20044;-67
2023/09/22 02:06:47;;;;;;;3.53;2.53;;;;;;;18.63;74.56;99557.25;2042645;28;20056;-67
2023/09/22 02:07:52;;;;;;;6.20;2.72;;;;;;;18.63;74.57;99554.53;2043320;28;20795;-67
2023/09/22 02:08:57;;;;;;;2.95;2.40;;;;;;;18.62;74.55;99544.75;2051002;28;20790;-66
2023/09/22 02:09:58;;;;;;;4.93;2.90;;;;;;;18.62;74.59;99550.19;2057968;28;20146;-67
2023/09/22 02:11:03;;;;;;;8.27;2.90;;;;;;;18.62;74.67;99549.41;2058241;28;20970;-67
2023/09/22 02:12:06;;;;;;;4.60;2.72;;;;;;;18.62;74.76;99550.19;2049646;28;20154;-66
2023/09/22 02:13:10;;;;;;;7.63;2.55;;;;;;;18.62;74.75;99544.75;2042686;28;20047;-66
2023/09/22 02:14:12;;;;;;;7.82;2.90;;;;;;;18.61;74.79;99545.91;2042201;28;20032;-66
2023/09/22 02:15:16;;;;;;;9.25;2.95;;;;;;;18.59;74.71;99545.47;2057998;28;20039;-67
2023/09/22 02:16:21;;;;;;;7.90;3.20;;;;;;;18.61;74.84;99542.41;2057025;28;20039;-66
2023/09/22 02:17:25;;;;;;;5.05;2.65;;;;;;;18.60;74.77;99544.34;2050868;28;20075;-67
2023/09/22 02:18:27;;;;;;;4.38;2.80;;;;;;;18.61;74.76;99540.47;2050013;28;20035;-67
2023/09/22 02:19:35;;;;;;;5.35;2.63;;;;;;;18.61;74.84;99537.75;2048910;28;20044;-66
2023/09/22 02:20:37;;;;;;;7.63;2.90;;;;;;;18.60;74.97;99547.06;2050874;28;20027;-67
2023/09/22 02:21:45;;;;;;;3.53;2.60;;;;;;;18.60;74.85;99538.91;2050072;28;20028;-66
2023/09/22 02:22:50;;;;;;;8.18;3.00;;;;;;;18.60;74.69;99540.81;2053559;28;20046;-66
2023/09/22 02:23:55;;;;;;;5.07;2.58;;;;;;;18.59;75.36;99541.97;2066141;28;20041;-67
2023/09/22 02:25:05;;;;;;;6.97;3.50;;;;;;;18.59;75.10;99539.25;2049687;28;20862;-67
2023/09/22 02:26:10;;;;;;;4.88;2.92;;;;;;;18.58;75.04;99532.22;2036697;28;20080;-67
2023/09/22 02:27:17;;;;;;;10.82;3.53;;;;;;;18.58;75.19;99532.22;2050961;28;20129;-67
2023/09/22 02:28:20;;;;;;;5.05;3.00;;;;;;;18.58;75.18;99533.00;2049694;28;20914;-67
2023/09/22 02:29:29;;;;;;;6.13;3.28;;;;;;;18.58;75.48;99537.69;2042429;28;20048;-67
2023/09/22 02:30:31;;;;;;;7.35;2.90;;;;;;;18.58;75.20;99526.78;2050972;28;20111;-67
2023/09/22 02:31:36;;;;;;;12.10;3.15;;;;;;;18.58;75.20;99530.28;2050100;28;20051;-67
2023/09/22 02:32:42;;;;;;;6.05;3.17;;;;;;;18.57;75.19;99519.75;2034805;29;20107;-67
2023/09/22 02:33:48;;;;;;;6.80;2.95;;;;;;;18.55;75.33;99522.84;2035901;28;20093;-67
2023/09/22 02:34:50;;;;;;;5.80;2.80;;;;;;;18.55;75.48;99522.84;2033293;28;20089;-67
2023/09/22 02:35:54;;;;;;;5.78;3.25;;;;;;;18.54;75.51;99515.81;2050936;28;20158;-67
2023/09/22 02:37:00;;;;;;;7.60;2.80;;;;;;;18.53;75.57;99515.00;2056910;28;20047;-67
2023/09/22 02:38:03;;;;;;;5.13;3.08;;;;;;;18.53;75.50;99520.47;2049918;28;20135;-67
2023/09/22 02:39:08;;;;;;;5.53;3.50;;;;;;;18.52;75.52;99508.00;2049383;28;20054;-67
2023/09/22 02:40:17;;;;;;;9.20;3.20;;;;;;;18.51;75.76;99509.16;2049487;28;20103;-67
2023/09/22 02:41:20;;;;;;;6.13;3.17;;;;;;;18.49;75.72;99511.44;2049905;28;20130;-67
2023/09/22 02:42:28;;;;;;;3.97;2.70;;;;;;;18.48;75.74;99500.91;2050297;28;20058;-66
2023/09/22 02:43:31;;;;;;;13.35;3.90;;;;;;;18.48;75.63;99509.09;2049211;28;20066;-67
2023/09/22 02:44:36;;;;;;;5.90;2.80;;;;;;;18.46;75.87;99498.53;2042470;28;20047;-63
2023/09/22 02:45:40;;;;;;;4.50;2.80;;;;;;;18.44;75.98;99508.19;2049711;28;20189;-64
2023/09/22 02:46:45;;;;;;;7.43;2.67;;;;;;;18.45;75.99;99501.63;2041700;29;20125;-63
2023/09/22 02:47:49;;;;;;;4.80;3.13;;;;;;;18.45;75.89;99507.06;2043294;28;21425;-63
2023/09/22 02:48:55;;;;;;;5.90;2.97;;;;;;;18.45;76.14;99507.06;2041819;28;20080;-63
2023/09/22 02:49:59;;;;;;;8.00;2.88;;;;;;;18.43;76.13;99499.25;2040589;28;20040;-63
2023/09/22 02:51:09;;;;;;;4.97;2.90;;;;;;;18.44;76.09;99502.75;2034594;29;20199;-64
2023/09/22 02:52:14;;;;;;;6.32;3.17;;;;;;;18.42;76.16;99502.34;2035232;28;20951;-64
2023/09/22 02:53:18;;;;;;;3.95;3.17;;;;;;;18.42;76.21;99502.34;2050265;28;20139;-63
2023/09/22 02:54:19;;;;;;;4.82;2.90;;;;;;;18.42;76.17;99502.34;2033952;29;20037;-64
2023/09/22 02:55:24;;;;;;;5.00;2.88;;;;;;;18.43;76.09;99512.06;2035466;28;20070;-63
2023/09/22 02:56:28;;;;;;;6.00;3.33;;;;;;;18.42;76.13;99505.84;2042463;28;20092;-65
2023/09/22 02:57:30;;;;;;;10.52;3.20;;;;;;;18.42;76.07;99508.56;2042626;28;20080;-64
2023/09/22 02:58:32;;;;;;;9.18;3.10;;;;;;;18.43;76.15;99503.91;2041531;28;20091;-64
2023/09/22 02:59:40;;;;;;;6.68;3.20;;;;;;;18.42;75.99;99499.63;2050264;28;20778;-64
2023/09/22 03:00:44;;;;;;;7.85;3.20;;;;;;;18.42;75.90;99510.50;2057348;28;20081;-65
2023/09/22 03:01:48;;;;;;;9.25;3.15;;;;;;;18.41;76.07;99506.19;2057650;28;20890;-64
2023/09/22 03:02:53;;;;;;;6.93;3.17;;;;;;;18.39;76.21;99516.66;2057542;28;20968;-64
2023/09/22 03:03:55;;;;;;;7.22;3.15;;;;;;;18.36;76.18;99512.72;2049039;28;20054;-65
2023/09/22 03:05:10;;;;;;;8.82;3.15;;;;;;;18.34;76.20;99504.13;2055730;28;20043;-64
2023/09/22 03:06:19;;;;;;;6.60;3.25;;;;;;;18.35;76.24;99515.78;2059903;28;20778;-64
2023/09/22 03:07:24;;;;;;;4.88;3.30;;;;;;;18.33;76.28;99507.19;2056784;28;20044;-64
2023/09/22 03:08:25;;;;;;;7.25;3.42;;;;;;;18.33;76.24;99505.25;2050010;28;20169;-64
2023/09/22 03:09:30;;;;;;;6.10;3.00;;;;;;;18.33;76.19;99516.16;2042077;28;20143;-64
2023/09/22 03:10:32;;;;;;;6.50;3.15;;;;;;;18.32;76.17;99511.06;2049694;28;20095;-65
2023/09/22 03:11:42;;;;;;;5.05;3.40;;;;;;;18.32;76.25;99519.25;2057496;28;20028;-65
2023/09/22 03:12:44;;;;;;;4.50;3.00;;;;;;;18.30;76.25;99514.91;2058444;28;20043;-65
2023/09/22 03:13:51;;;;;;;5.32;2.70;;;;;;;18.31;76.22;99518.44;2065661;28;20141;-65
2023/09/22 03:14:58;;;;;;;4.47;2.80;;;;;;;18.30;76.30;99516.84;2051452;28;20807;-65
2023/09/22 03:16:00;;;;;;;5.55;3.03;;;;;;;18.29;76.23;99521.53;2050624;28;20119;-65
2023/09/22 03:17:06;;;;;;;9.15;2.97;;;;;;;18.28;76.26;99524.59;2049099;28;20043;-65
2023/09/22 03:18:15;;;;;;;6.60;2.90;;;;;;;18.26;76.45;99519.50;2034484;29;20043;-64
2023/09/22 03:19:19;;;;;;;7.57;2.90;;;;;;;18.23;76.13;99517.50;2043721;28;20165;-65
2023/09/22 03:20:24;;;;;;;5.22;2.80;;;;;;;18.24;76.59;99521.78;2040880;28;20367;-65
2023/09/22 03:21:28;;;;;;;5.50;2.60;;;;;;;18.22;76.39;99515.94;2041967;28;20052;-65
2023/09/22 03:22:35;;;;;;;8.48;3.20;;;;;;;18.21;76.36;99533.38;2049398;28;20150;-65
2023/09/22 03:23:41;;;;;;;5.20;2.78;;;;;;;18.19;76.50;99513.91;2057669;28;20279;-65
2023/09/22 03:24:43;;;;;;;5.97;2.80;;;;;;;18.18;76.36;99515.03;2041621;28;20832;-64
2023/09/22 03:25:50;;;;;;;4.68;2.90;;;;;;;18.17;76.43;99521.63;2042050;28;20872;-66
2023/09/22 03:26:59;;;;;;;6.10;3.10;;;;;;;18.16;76.51;99514.63;2050576;28;20047;-66
2023/09/22 03:28:08;;;;;;;6.25;2.70;;;;;;;18.13;76.56;99509.91;2058801;28;20810;-66
2023/09/22 03:29:12;;;;;;;5.40;3.08;;;;;;;18.11;76.84;99525.78;2057305;28;20035;-66
2023/09/22 03:30:17;;;;;;;4.47;3.30;;;;;;;18.09;76.67;99511.72;2056271;28;20047;-67
2023/09/22 03:31:23;;;;;;;4.47;2.80;;;;;;;18.10;76.88;99518.75;2064526;28;20051;-65
2023/09/22 03:32:32;;;;;;;4.28;3.00;;;;;;;18.09;76.86;99521.81;2049528;28;20102;-65
2023/09/22 03:33:40;;;;;;;4.03;2.97;;;;;;;18.08;76.81;99514.81;2043708;28;20086;-65
2023/09/22 03:34:47;;;;;;;4.93;2.85;;;;;;;18.08;76.85;99518.31;2056467;28;20039;-65
2023/09/22 03:35:50;;;;;;;5.95;3.03;;;;;;;18.08;76.85;99512.88;2057078;28;20035;-66
2023/09/22 03:36:54;;;;;;;4.80;2.90;;;;;;;18.06;76.86;99507.00;2041591;29;20050;-65
2023/09/22 03:37:58;;;;;;;5.07;3.00;;;;;;;18.06;77.04;99517.88;2042742;28;20978;-65
2023/09/22 03:39:07;;;;;;;5.60;2.75;;;;;;;18.04;77.10;99507.34;2041638;28;20043;-65
2023/09/22 03:40:24;;;;;;;5.05;3.15;;;;;;;18.04;76.99;99509.28;2043293;28;20078;-65
2023/09/22 03:41:28;;;;;;;6.68;3.25;;;;;;;18.03;77.12;99513.13;2051186;28;20040;-65
2023/09/22 03:42:30;;;;;;;3.95;2.90;;;;;;;18.02;77.26;99504.19;2049466;28;20039;-66
2023/09/22 03:43:35;;;;;;;4.47;2.80;;;;;;;18.01;77.14;99499.13;2049174;28;20881;-65
2023/09/22 03:44:38;;;;;;;8.45;2.95;;;;;;;18.00;77.30;99500.25;2042576;28;20924;-66
2023/09/22 03:45:43;;;;;;;5.78;2.80;;;;;;;18.00;77.27;99492.09;2041816;28;20043;-65
2023/09/22 03:46:44;;;;;;;5.18;2.65;;;;;;;17.99;77.33;99480.44;2040638;28;20048;-67
2023/09/22 03:47:51;;;;;;;7.78;2.70;;;;;;;17.99;77.38;99498.69;2042231;28;20902;-67
2023/09/22 03:48:57;;;;;;;5.70;3.15;;;;;;;17.97;77.46;99490.88;2050661;28;20230;-66
2023/09/22 03:50:01;;;;;;;4.57;2.78;;;;;;;17.98;77.53;99491.66;2053670;28;21020;-66
2023/09/22 03:51:03;;;;;;;4.72;2.63;;;;;;;17.95;77.52;99489.66;2041366;29;20135;-67
2023/09/22 03:52:07;;;;;;;4.13;2.60;;;;;;;17.96;77.59;99488.50;2041877;28;20151;-66
2023/09/22 03:53:13;;;;;;;4.50;2.92;;;;;;;17.96;77.52;99485.78;2055284;28;20058;-66
2023/09/22 03:54:18;;;;;;;4.78;2.70;;;;;;;17.96;77.56;99496.66;2056710;28;20843;-66
2023/09/22 03:55:21;;;;;;;6.97;3.40;;;;;;;17.96;77.69;99488.50;2041983;28;20197;-66
2023/09/22 03:56:22;;;;;;;3.42;2.88;;;;;;;17.90;77.65;99479.03;2041585;28;20070;-66
2023/09/22 03:57:26;;;;;;;5.97;2.83;;;;;;;17.94;77.66;99485.38;2057822;28;20802;-66
2023/09/22 03:58:30;;;;;;;5.18;2.97;;;;;;;17.94;77.62;99488.09;2063914;28;20866;-66
2023/09/22 03:59:32;;;;;;;5.13;2.80;;;;;;;17.92;77.70;99477.56;2048468;28;20055;-66
2023/09/22 04:00:37;;;;;;;4.72;3.00;;;;;;;17.92;77.88;99474.03;2033722;29;20783;-66
2023/09/22 04:01:39;;;;;;;4.88;2.78;;;;;;;17.92;77.90;99480.28;2041739;28;20036;-66
2023/09/22 04:02:49;;;;;;;7.03;2.88;;;;;;;17.90;77.82;99481.75;2033687;29;20171;-66
2023/09/22 04:03:55;;;;;;;7.63;3.05;;;;;;;17.89;77.88;99485.63;2035993;28;20788;-66
2023/09/22 04:04:57;;;;;;;6.20;2.88;;;;;;;17.89;77.88;99482.91;2042697;28;20047;-66
2023/09/22 04:06:04;;;;;;;7.82;3.25;;;;;;;17.88;77.91;99489.50;2050063;28;20881;-66
2023/09/22 04:07:07;;;;;;;9.00;2.80;;;;;;;17.87;78.01;99480.53;2058072;28;20157;-65
2023/09/22 04:08:09;;;;;;;6.15;2.83;;;;;;;17.88;78.03;99484.06;2057040;28;20043;-66
2023/09/22 04:09:13;;;;;;;5.63;3.20;;;;;;;17.88;78.08;99479.41;2057600;28;20082;-68
2023/09/22 04:10:17;;;;;;;4.00;2.67;;;;;;;17.89;78.01;99482.91;2057086;28;20170;-65
2023/09/22 04:11:22;;;;;;;4.60;2.63;;;;;;;17.89;78.03;99485.63;2049495;28;20178;-65
2023/09/22 04:12:25;;;;;;;9.75;3.33;;;;;;;17.89;78.02;99480.19;2049318;28;20035;-66
2023/09/22 04:13:30;;;;;;;7.60;3.05;;;;;;;17.89;78.11;99480.19;2048736;28;20059;-66
2023/09/22 04:14:33;;;;;;;8.80;3.10;;;;;;;17.88;78.01;99475.91;2046046;28;20043;-66
2023/09/22 04:15:35;;;;;;;6.65;3.15;;;;;;;17.88;78.06;99473.19;2041942;28;20733;-65
2023/09/22 04:16:38;;;;;;;5.43;2.80;;;;;;;17.86;78.14;99476.25;2048989;28;20839;-66
2023/09/22 04:17:45;;;;;;;5.10;2.67;;;;;;;17.86;78.02;99475.47;2034177;28;20064;-67
2023/09/22 04:18:53;;;;;;;5.53;3.25;;;;;;;17.85;78.25;99479.34;2041252;28;20955;-66
2023/09/22 04:20:07;;;;;;;6.85;3.20;;;;;;;17.85;78.05;99479.34;2043060;28;20035;-65
2023/09/22 04:21:10;;;;;;;6.22;2.80;;;;;;;17.85;78.09;99482.84;2041962;28;20824;-67
2023/09/22 04:22:16;;;;;;;4.53;2.70;;;;;;;17.83;78.28;99472.28;2023282;29;20037;-66
2023/09/22 04:23:20;;;;;;;6.45;3.15;;;;;;;17.82;78.23;99475.38;2040819;28;20773;-66
2023/09/22 04:24:31;;;;;;;3.50;2.50;;;;;;;17.82;78.30;99472.66;2055490;28;20042;-66
2023/09/22 04:25:36;;;;;;;4.70;3.00;;;;;;;17.82;78.19;99484.31;2041829;28;20036;-66
2023/09/22 04:26:48;;;;;;;6.65;3.13;;;;;;;17.82;78.25;99476.16;2050548;28;20090;-66
2023/09/22 04:27:54;;;;;;;5.03;3.40;;;;;;;17.81;78.31;99477.31;2065025;28;20035;-66
2023/09/22 04:29:00;;;;;;;6.15;3.20;;;;;;;17.78;78.42;99472.59;2063181;28;20051;-66
2023/09/22 04:30:11;;;;;;;5.25;3.40;;;;;;;17.78;78.51;99464.44;2039543;28;21330;-66
2023/09/22 04:31:16;;;;;;;7.00;3.55;;;;;;;17.78;78.62;99475.31;2043117;28;20123;-66
2023/09/22 04:32:21;;;;;;;5.53;2.95;;;;;;;17.77;78.57;99467.50;2040554;28;20115;-66
2023/09/22 04:33:26;;;;;;;5.78;3.58;;;;;;;17.76;78.57;99468.59;2050394;28;20740;-66
2023/09/22 04:34:30;;;;;;;7.88;3.10;;;;;;;17.77;78.74;99473.72;2055596;28;20131;-66
2023/09/22 04:35:37;;;;;;;8.80;3.03;;;;;;;17.77;78.72;99478.34;2039772;28;20170;-66
2023/09/22 04:36:42;;;;;;;5.50;3.30;;;;;;;17.76;78.84;99471.31;2041422;28;20820;-66
2023/09/22 04:37:44;;;;;;;7.45;3.50;;;;;;;17.77;78.90;99475.63;2040206;28;20048;-66
2023/09/22 04:38:48;;;;;;;3.97;2.80;;;;;;;17.77;78.69;99472.91;2048312;28;20913;-66
2023/09/22 04:39:50;;;;;;;5.63;3.00;;;;;;;17.78;78.73;99479.94;2048666;28;20927;-66
2023/09/22 04:41:01;;;;;;;7.10;3.03;;;;;;;17.76;78.74;99466.66;2048387;28;20039;-66
2023/09/22 04:42:03;;;;;;;5.10;3.00;;;;;;;17.77;78.83;99484.59;2048295;28;20122;-66
2023/09/22 04:43:07;;;;;;;5.82;3.10;;;;;;;17.76;78.96;99477.53;2048097;28;20040;-65
2023/09/22 04:44:09;;;;;;;8.23;3.10;;;;;;;17.75;78.93;99480.63;2046797;28;20062;-66
2023/09/22 04:45:11;;;;;;;5.90;2.92;;;;;;;17.74;79.03;99479.81;2057036;28;20114;-65
2023/09/22 04:46:15;;;;;;;7.80;3.40;;;;;;;17.74;79.00;99476.31;2041160;28;20037;-65
2023/09/22 04:47:18;;;;;;;5.13;3.08;;;;;;;17.64;79.13;99455.13;2034265;28;20036;-66
2023/09/22 04:48:22;;;;;;;5.45;3.35;;;;;;;17.75;79.06;99475.97;2042199;28;20054;-66
2023/09/22 04:49:24;;;;;;;6.43;3.30;;;;;;;17.76;79.08;99477.53;2049051;28;20170;-66
2023/09/22 04:50:28;;;;;;;4.60;3.33;;;;;;;17.76;79.01;99482.97;2047892;28;20178;-66
2023/09/22 04:51:29;;;;;;;5.47;3.50;;;;;;;17.77;78.93;99476.44;2049442;28;20036;-66
2023/09/22 04:52:34;;;;;;;6.47;3.42;;;;;;;17.78;79.00;99480.75;2041096;28;20040;-66
2023/09/22 04:53:39;;;;;;;6.75;3.45;;;;;;;17.78;79.07;99478.03;2034252;28;20151;-66
2023/09/22 04:54:42;;;;;;;8.70;3.90;;;;;;;17.78;79.09;99475.31;2049573;28;20122;-66
2023/09/22 04:55:48;;;;;;;4.63;3.13;;;;;;;17.76;79.21;99466.66;2049606;28;20055;-66
2023/09/22 04:56:51;;;;;;;4.82;3.00;;;;;;;17.77;79.04;99470.19;2049806;28;20786;-66
2023/09/22 04:57:54;;;;;;;6.57;3.25;;;;;;;17.76;79.18;99472.09;2040998;29;20804;-66
2023/09/22 04:59:00;;;;;;;5.88;3.30;;;;;;;17.77;79.20;99472.91;2041874;28;20629;-66
2023/09/22 05:00:05;;;;;;;4.72;3.15;;;;;;;17.76;79.14;99479.47;2057843;28;20031;-66
2023/09/22 05:01:11;;;;;;;4.75;3.25;;;;;;;17.76;79.18;99474.81;2057018;28;20035;-66
2023/09/22 05:02:16;;;;;;;6.22;3.40;;;;;;;17.77;79.28;99475.63;2057689;28;20035;-66
2023/09/22 05:03:22;;;;;;;6.68;3.70;;;;;;;17.78;79.25;99478.03;2056825;28;20130;-66
2023/09/22 05:04:25;;;;;;;3.83;3.03;;;;;;;17.77;79.01;99473.72;2049526;28;20047;-66
2023/09/22 05:05:28;;;;;;;6.55;4.03;;;;;;;17.79;79.11;99466.00;2038686;28;20776;-67